createdAt,value
2022-11-19T00:00:16.101Z,98
2022-11-19T00:01:23.252Z,98
2022-11-19T00:02:30.385Z,98
2022-11-19T00:03:36.946Z,98
2022-11-19T00:05:51.099Z,98
2022-11-19T00:06:58.262Z,98
2022-11-19T00:08:05.385Z,98
2022-11-19T00:09:11.981Z,98
2022-11-19T00:10:19.012Z,98
2022-11-19T00:11:26.132Z,98
2022-11-19T00:12:33.274Z,98
2022-11-19T00:13:40.374Z,98
2022-11-19T00:14:46.992Z,98
2022-11-19T00:15:54.055Z,98
2022-11-19T00:17:01.147Z,98
2022-11-19T00:18:08.240Z,97
2022-11-19T00:19:14.935Z,98
2022-11-19T00:20:21.944Z,97
2022-11-19T00:21:29.088Z,98
2022-11-19T00:22:36.163Z,98
2022-11-19T00:23:43.270Z,98
2022-11-19T00:24:49.973Z,97
2022-11-19T00:25:57.491Z,97
2022-11-19T00:27:04.061Z,98
2022-11-19T00:28:11.162Z,98
2022-11-19T00:29:18.426Z,98
2022-11-19T00:30:46.389Z,98
2022-11-19T00:31:31.992Z,98
2022-11-19T00:32:39.083Z,98
2022-11-19T00:33:46.185Z,98
2022-11-19T00:34:53.430Z,98
2022-11-19T00:35:59.903Z,98
2022-11-19T00:37:06.992Z,98
2022-11-19T00:38:14.056Z,98
2022-11-19T00:39:21.945Z,97
2022-11-19T00:40:28.264Z,98
2022-11-19T00:41:34.908Z,98
2022-11-19T00:42:41.974Z,98
2022-11-19T00:44:56.215Z,98
2022-11-19T00:47:09.905Z,98
2022-11-19T00:48:17.061Z,98
2022-11-19T00:49:24.248Z,98
2022-11-19T00:50:31.243Z,98
2022-11-19T00:51:38.362Z,98
2022-11-19T00:52:44.910Z,98
2022-11-19T00:53:51.981Z,98
2022-11-19T00:54:59.123Z,98
2022-11-19T00:56:06.203Z,98
2022-11-19T00:57:13.269Z,98
2022-11-19T00:58:19.894Z,98
2022-11-19T00:59:27.083Z,97
2022-11-19T01:00:34.249Z,97
2022-11-19T01:01:41.285Z,97
2022-11-19T01:02:50.505Z,97
2022-11-19T01:03:54.896Z,96
2022-11-19T01:05:01.987Z,97
2022-11-19T01:06:09.184Z,97
2022-11-19T01:07:16.271Z,96
2022-11-19T01:08:23.292Z,97
2022-11-19T01:09:29.965Z,96
2022-11-19T01:10:37.024Z,96
2022-11-19T01:11:44.165Z,96
2022-11-19T01:12:51.231Z,96
2022-11-19T01:13:57.764Z,96
2022-11-19T01:15:04.871Z,96
2022-11-19T01:16:12.019Z,96
2022-11-19T01:18:26.271Z,96
2022-11-19T01:19:32.805Z,96
2022-11-19T01:20:39.999Z,96
2022-11-19T01:21:47.020Z,95
2022-11-19T01:22:54.112Z,96
2022-11-19T01:24:01.186Z,96
2022-11-19T01:25:07.836Z,96
2022-11-19T01:26:15.091Z,95
2022-11-19T01:28:29.149Z,96
2022-11-19T01:29:36.261Z,95
2022-11-19T01:30:42.779Z,95
2022-11-19T01:31:49.972Z,95
2022-11-19T01:32:57.050Z,95
2022-11-19T01:34:04.169Z,95
2022-11-19T01:35:11.264Z,95
2022-11-19T01:36:17.880Z,95
2022-11-19T01:37:25.080Z,94
2022-11-19T01:38:32.057Z,95
2022-11-19T01:39:39.128Z,95
2022-11-19T01:40:46.301Z,95
2022-11-19T01:41:52.883Z,95
2022-11-19T01:42:59.975Z,95
2022-11-19T01:44:07.079Z,95
2022-11-19T01:45:14.168Z,95
2022-11-19T01:46:21.282Z,94
2022-11-19T01:48:34.973Z,94
2022-11-19T01:49:42.025Z,95
2022-11-19T01:50:49.154Z,95
2022-11-19T01:51:56.286Z,95
2022-11-19T01:53:02.852Z,94
2022-11-19T01:54:10.444Z,94
2022-11-19T01:55:17.086Z,94
2022-11-19T01:56:24.209Z,94
2022-11-19T01:57:31.249Z,95
2022-11-19T01:58:37.895Z,95
2022-11-19T01:59:45.006Z,95
2022-11-19T02:00:52.095Z,95
2022-11-19T02:01:59.195Z,95
2022-11-19T02:03:06.300Z,94
2022-11-19T02:04:12.881Z,94
2022-11-19T02:05:20.034Z,94
2022-11-19T02:06:27.652Z,94
2022-11-19T02:07:34.329Z,94
2022-11-19T02:09:47.913Z,94
2022-11-19T02:10:55.033Z,94
2022-11-19T02:12:02.081Z,93
2022-11-19T02:13:09.211Z,94
2022-11-19T02:14:16.298Z,94
2022-11-19T02:15:22.839Z,93
2022-11-19T02:16:30.068Z,93
2022-11-19T02:17:37.117Z,93
2022-11-19T02:18:44.241Z,93
2022-11-19T02:19:51.300Z,93
2022-11-19T02:20:57.877Z,92
2022-11-19T02:22:05.027Z,93
2022-11-19T02:23:12.087Z,92
2022-11-19T02:24:19.200Z,92
2022-11-19T02:25:26.458Z,92
2022-11-19T02:26:32.880Z,92
2022-11-19T02:27:40.021Z,92
2022-11-19T02:28:47.103Z,92
2022-11-19T02:29:54.273Z,91
2022-11-19T02:31:01.325Z,92
2022-11-19T02:32:07.962Z,91
2022-11-19T02:33:15.053Z,91
2022-11-19T02:34:22.132Z,91
2022-11-19T02:35:29.253Z,91
2022-11-19T02:36:35.847Z,90
2022-11-19T02:37:42.921Z,90
2022-11-19T02:38:50.004Z,90
2022-11-19T02:39:57.170Z,89
2022-11-19T02:41:04.271Z,89
2022-11-19T02:42:10.832Z,89
2022-11-19T02:43:18.006Z,88
2022-11-19T02:44:25.090Z,88
2022-11-19T02:46:39.265Z,88
2022-11-19T02:47:45.847Z,88
2022-11-19T02:48:52.883Z,87
2022-11-19T02:52:14.304Z,87
2022-11-19T02:53:20.833Z,87
2022-11-19T02:54:27.963Z,87
2022-11-19T02:55:35.090Z,87
2022-11-19T02:56:42.147Z,87
2022-11-19T02:57:49.287Z,87
2022-11-19T02:58:55.868Z,87
2022-11-19T03:00:02.896Z,87
2022-11-19T03:01:10.119Z,87
2022-11-19T03:02:17.335Z,87
2022-11-19T03:03:24.523Z,87
2022-11-19T03:04:30.840Z,87
2022-11-19T03:05:37.962Z,86
2022-11-19T03:06:45.102Z,86
2022-11-19T03:07:52.130Z,86
2022-11-19T03:08:59.322Z,86
2022-11-19T03:10:06.356Z,86
2022-11-19T03:11:12.924Z,86
2022-11-19T03:12:20.048Z,86
2022-11-19T03:13:27.185Z,85
2022-11-19T03:14:34.310Z,86
2022-11-19T03:15:40.854Z,86
2022-11-19T03:16:47.999Z,86
2022-11-19T03:17:55.076Z,86
2022-11-19T03:19:02.193Z,86
2022-11-19T03:20:09.300Z,86
2022-11-19T03:21:15.906Z,86
2022-11-19T03:22:23.512Z,86
2022-11-19T03:23:30.060Z,86
2022-11-19T03:24:37.141Z,86
2022-11-19T03:25:44.344Z,86
2022-11-19T03:26:50.981Z,86
2022-11-19T03:27:58.006Z,86
2022-11-19T03:29:05.109Z,86
2022-11-19T03:30:12.181Z,86
2022-11-19T03:32:25.887Z,86
2022-11-19T03:33:32.989Z,86
2022-11-19T03:34:40.136Z,86
2022-11-19T03:35:47.158Z,86
2022-11-19T03:36:54.312Z,86
2022-11-19T03:38:00.880Z,86
2022-11-19T03:39:08.017Z,86
2022-11-19T03:40:15.405Z,86
2022-11-19T03:41:22.238Z,86
2022-11-19T03:42:29.331Z,86
2022-11-19T03:43:35.915Z,86
2022-11-19T03:44:42.962Z,86
2022-11-19T03:45:50.142Z,86
2022-11-19T03:46:57.315Z,85
2022-11-19T03:48:03.753Z,86
2022-11-19T03:49:10.942Z,86
2022-11-19T03:50:18.090Z,86
2022-11-19T03:51:25.189Z,86
2022-11-19T03:52:32.250Z,86
2022-11-19T03:53:38.837Z,86
2022-11-19T03:54:45.916Z,86
2022-11-19T03:55:53.018Z,86
2022-11-19T03:57:00.139Z,86
2022-11-19T03:58:07.216Z,86
2022-11-19T03:59:13.833Z,86
2022-11-19T04:00:20.934Z,86
2022-11-19T04:01:28.111Z,86
2022-11-19T04:02:35.135Z,86
2022-11-19T04:03:42.264Z,86
2022-11-19T04:04:48.851Z,86
2022-11-19T04:05:56.011Z,86
2022-11-19T04:07:03.057Z,86
2022-11-19T04:08:10.130Z,86
2022-11-19T04:09:17.717Z,86
2022-11-19T04:10:23.850Z,86
2022-11-19T04:11:31.082Z,86
2022-11-19T04:14:52.294Z,86
2022-11-19T04:15:58.852Z,86
2022-11-19T04:17:06.024Z,86
2022-11-19T04:18:13.033Z,86
2022-11-19T04:19:20.581Z,86
2022-11-19T04:20:27.263Z,86
2022-11-19T04:21:33.817Z,86
2022-11-19T04:22:40.924Z,86
2022-11-19T04:23:48.114Z,86
2022-11-19T04:24:55.202Z,86
2022-11-19T04:26:02.414Z,86
2022-11-19T04:27:08.943Z,86
2022-11-19T04:28:15.987Z,86
2022-11-19T04:29:23.062Z,86
2022-11-19T04:30:30.153Z,86
2022-11-19T04:31:37.259Z,86
2022-11-19T04:32:43.847Z,86
2022-11-19T04:33:50.984Z,86
2022-11-19T04:34:58.122Z,86
2022-11-19T04:36:05.171Z,86
2022-11-19T04:37:51.668Z,86
2022-11-19T04:38:18.888Z,86
2022-11-19T04:39:26.001Z,86
2022-11-19T04:40:33.053Z,86
2022-11-19T04:41:40.205Z,86
2022-11-19T04:42:47.288Z,86
2022-11-19T04:43:53.847Z,86
2022-11-19T04:45:00.965Z,86
2022-11-19T04:46:08.108Z,86
2022-11-19T04:47:15.234Z,86
2022-11-19T04:48:22.255Z,86
2022-11-19T04:49:28.882Z,86
2022-11-19T04:50:36.494Z,86
2022-11-19T04:51:43.048Z,85
2022-11-19T04:52:50.630Z,85
2022-11-19T04:55:03.912Z,85
2022-11-19T04:56:10.958Z,85
2022-11-19T04:57:18.135Z,85
2022-11-19T04:59:31.823Z,85
2022-11-19T05:00:38.922Z,85
2022-11-19T05:01:46.126Z,85
2022-11-19T05:02:53.172Z,85
2022-11-19T05:04:00.238Z,85
2022-11-19T05:05:06.832Z,85
2022-11-19T05:06:13.888Z,85
2022-11-19T05:07:21.057Z,85
2022-11-19T05:08:28.155Z,85
2022-11-19T05:09:35.218Z,85
2022-11-19T05:10:41.764Z,85
2022-11-19T05:11:48.944Z,85
2022-11-19T05:12:56.067Z,85
2022-11-19T05:14:03.078Z,85
2022-11-19T05:15:10.259Z,85
2022-11-19T05:16:16.809Z,85
2022-11-19T05:17:24.446Z,85
2022-11-19T05:18:31.016Z,85
2022-11-19T05:19:38.130Z,85
2022-11-19T05:20:45.265Z,84
2022-11-19T05:21:51.934Z,84
2022-11-19T05:22:58.951Z,84
2022-11-19T05:24:06.091Z,84
2022-11-19T05:25:13.139Z,84
2022-11-19T05:26:20.293Z,84
2022-11-19T05:27:26.896Z,84
2022-11-19T05:28:39.014Z,84
2022-11-19T05:29:41.037Z,84
2022-11-19T05:30:48.141Z,84
2022-11-19T05:31:55.246Z,84
2022-11-19T05:33:01.832Z,84
2022-11-19T05:34:08.985Z,84
2022-11-19T05:36:23.282Z,84
2022-11-19T05:37:30.303Z,84
2022-11-19T05:38:36.883Z,84
2022-11-19T05:39:44.069Z,84
2022-11-19T05:40:51.040Z,84
2022-11-19T05:43:05.341Z,84
2022-11-19T05:44:11.843Z,84
2022-11-19T05:45:19.006Z,84
2022-11-19T05:46:26.130Z,84
2022-11-19T05:47:33.128Z,84
2022-11-19T05:48:40.320Z,84
2022-11-19T05:49:46.922Z,84
2022-11-19T05:50:54.000Z,84
2022-11-19T05:52:01.067Z,84
2022-11-19T05:53:08.213Z,84
2022-11-19T05:54:15.283Z,84
2022-11-19T05:55:21.821Z,84
2022-11-19T05:56:29.009Z,84
2022-11-19T05:57:36.107Z,84
2022-11-19T05:58:43.150Z,84
2022-11-19T05:59:50.322Z,84
2022-11-19T06:00:56.838Z,84
2022-11-19T06:03:11.169Z,84
2022-11-19T06:04:18.224Z,84
2022-11-19T06:05:25.323Z,83
2022-11-19T06:06:31.961Z,84
2022-11-19T06:07:39.076Z,84
2022-11-19T06:08:46.132Z,84
2022-11-19T06:09:53.176Z,84
2022-11-19T06:10:59.821Z,84
2022-11-19T06:12:06.963Z,84
2022-11-19T06:13:14.045Z,84
2022-11-19T06:14:21.094Z,84
2022-11-19T06:15:28.185Z,84
2022-11-19T06:17:41.903Z,85
2022-11-19T06:18:49.532Z,85
2022-11-19T06:19:56.087Z,85
2022-11-19T06:21:07.008Z,85
2022-11-19T06:22:09.860Z,85
2022-11-19T06:23:16.941Z,85
2022-11-19T06:24:24.025Z,85
2022-11-19T06:25:31.108Z,86
2022-11-19T06:26:38.235Z,86
2022-11-19T06:27:44.812Z,86
2022-11-19T06:28:51.934Z,86
2022-11-19T06:29:59.073Z,86
2022-11-19T06:31:06.147Z,86
2022-11-19T06:32:13.262Z,86
2022-11-19T06:33:19.802Z,86
2022-11-19T06:34:27.962Z,87
2022-11-19T06:35:34.058Z,87
2022-11-19T06:36:42.924Z,87
2022-11-19T06:37:48.284Z,87
2022-11-19T06:38:54.847Z,87
2022-11-19T06:40:01.890Z,87
2022-11-19T06:41:09.092Z,87
2022-11-19T06:42:16.204Z,87
2022-11-19T06:43:23.247Z,87
2022-11-19T06:44:29.821Z,88
2022-11-19T06:45:36.923Z,88
2022-11-19T06:46:44.174Z,88
2022-11-19T06:47:51.140Z,88
2022-11-19T06:48:58.263Z,88
2022-11-19T06:50:04.862Z,88
2022-11-19T06:51:11.986Z,89
2022-11-19T06:52:19.162Z,89
2022-11-19T06:53:26.320Z,89
2022-11-19T06:54:33.263Z,89
2022-11-19T06:55:39.883Z,89
2022-11-19T06:56:46.917Z,89
2022-11-19T06:59:01.173Z,90
2022-11-19T07:00:08.285Z,90
2022-11-19T07:01:14.991Z,90
2022-11-19T07:02:22.041Z,90
2022-11-19T07:03:29.124Z,90
2022-11-19T07:04:36.163Z,90
2022-11-19T07:05:43.259Z,91
2022-11-19T07:06:49.934Z,91
2022-11-19T07:08:02.589Z,91
2022-11-19T07:09:04.066Z,91
2022-11-19T07:11:18.334Z,91
2022-11-19T07:12:24.857Z,92
2022-11-19T07:13:31.984Z,92
2022-11-19T07:14:39.104Z,92
2022-11-19T07:15:46.195Z,92
2022-11-19T07:16:53.377Z,92
2022-11-19T07:17:59.872Z,92
2022-11-19T07:19:07.033Z,92
2022-11-19T07:20:14.133Z,92
2022-11-19T07:21:21.160Z,92
2022-11-19T07:22:27.785Z,92
2022-11-19T07:23:34.912Z,92
2022-11-19T07:24:42.620Z,92
2022-11-19T07:25:49.084Z,93
2022-11-19T07:26:56.235Z,93
2022-11-19T07:28:02.757Z,93
2022-11-19T07:29:09.923Z,93
2022-11-19T07:30:17.090Z,93
2022-11-19T07:31:24.142Z,93
2022-11-19T07:32:31.202Z,93
2022-11-19T07:33:37.784Z,93
2022-11-19T07:34:44.948Z,93
2022-11-19T07:35:52.008Z,94
2022-11-19T07:36:59.119Z,93
2022-11-19T07:38:06.205Z,94
2022-11-19T07:40:19.994Z,94
2022-11-19T07:41:26.999Z,94
2022-11-19T07:42:34.196Z,95
2022-11-19T07:43:41.216Z,95
2022-11-19T07:44:50.906Z,95
2022-11-19T07:45:54.921Z,95
2022-11-19T07:47:02.603Z,95
2022-11-19T07:48:09.112Z,95
2022-11-19T07:49:16.391Z,95
2022-11-19T07:50:22.819Z,95
2022-11-19T07:51:29.963Z,96
2022-11-19T07:52:37.055Z,95
2022-11-19T07:53:44.122Z,96
2022-11-19T07:54:51.206Z,96
2022-11-19T07:55:57.851Z,96
2022-11-19T07:57:06.016Z,96
2022-11-19T07:58:12.048Z,96
2022-11-19T07:59:19.432Z,96
2022-11-19T08:00:26.417Z,96
2022-11-19T08:01:32.895Z,97
2022-11-19T08:02:40.037Z,96
2022-11-19T08:03:50.591Z,96
2022-11-19T08:04:54.214Z,97
2022-11-19T08:06:01.276Z,97
2022-11-19T08:07:07.979Z,97
2022-11-19T08:08:14.997Z,97
2022-11-19T08:10:31.888Z,97
2022-11-19T08:11:36.304Z,97
2022-11-19T08:12:42.924Z,97
2022-11-19T08:13:49.994Z,97
2022-11-19T08:14:57.104Z,97
2022-11-19T08:16:04.189Z,97
2022-11-19T08:17:11.334Z,97
2022-11-19T08:18:17.907Z,97
2022-11-19T08:19:24.955Z,97
2022-11-19T08:21:39.230Z,97
2022-11-19T08:22:46.307Z,97
2022-11-19T08:23:52.881Z,97
2022-11-19T08:25:00.010Z,97
2022-11-19T08:26:07.135Z,97
2022-11-19T08:27:14.244Z,97
2022-11-19T08:28:21.240Z,97
2022-11-19T08:29:27.932Z,97
2022-11-19T08:30:34.963Z,97
2022-11-19T08:31:42.095Z,97
2022-11-19T08:32:50.858Z,97
2022-11-19T08:33:55.795Z,97
2022-11-19T08:35:02.889Z,97
2022-11-19T08:36:09.972Z,97
2022-11-19T08:37:17.073Z,96
2022-11-19T08:38:24.782Z,97
2022-11-19T08:39:30.809Z,96
2022-11-19T08:40:37.905Z,97
2022-11-19T08:41:45.021Z,97
2022-11-19T08:42:52.135Z,96
2022-11-19T08:43:59.192Z,97
2022-11-19T08:45:05.809Z,96
2022-11-19T08:46:12.921Z,96
2022-11-19T08:47:20.025Z,96
2022-11-19T08:48:27.143Z,97
2022-11-19T08:49:34.244Z,97
2022-11-19T08:50:40.751Z,96
2022-11-19T08:51:47.923Z,96
2022-11-19T08:52:55.050Z,96
2022-11-19T08:54:02.165Z,96
2022-11-19T08:55:09.257Z,96
2022-11-19T08:56:18.136Z,96
2022-11-19T08:57:22.909Z,96
2022-11-19T08:58:30.000Z,96
2022-11-19T08:59:37.147Z,96
2022-11-19T09:00:44.337Z,96
2022-11-19T09:02:57.980Z,96
2022-11-19T09:04:05.066Z,96
2022-11-19T09:05:14.681Z,96
2022-11-19T09:06:19.257Z,96
2022-11-19T09:07:25.872Z,95
2022-11-19T09:08:32.910Z,96
2022-11-19T09:09:40.071Z,96
2022-11-19T09:10:47.198Z,96
2022-11-19T09:11:54.316Z,96
2022-11-19T09:14:07.935Z,96
2022-11-19T09:15:15.054Z,96
2022-11-19T09:16:22.096Z,96
2022-11-19T09:17:29.301Z,96
2022-11-19T09:18:35.902Z,96
2022-11-19T09:19:43.980Z,96
2022-11-19T09:20:50.082Z,96
2022-11-19T09:21:57.172Z,96
2022-11-19T09:23:04.245Z,96
2022-11-19T09:24:10.857Z,96
2022-11-19T09:25:17.932Z,96
2022-11-19T09:26:25.044Z,96
2022-11-19T09:27:32.206Z,96
2022-11-19T09:28:39.284Z,96
2022-11-19T09:29:45.883Z,96
2022-11-19T09:30:52.945Z,96
2022-11-19T09:32:00.098Z,96
2022-11-19T09:33:07.203Z,96
2022-11-19T09:34:14.305Z,96
2022-11-19T09:35:20.861Z,96
2022-11-19T09:36:27.996Z,96
2022-11-19T09:37:35.133Z,96
2022-11-19T09:38:42.157Z,96
2022-11-19T09:39:48.755Z,96
2022-11-19T09:40:55.857Z,96
2022-11-19T09:42:03.021Z,96
2022-11-19T09:44:17.548Z,95
2022-11-19T09:45:24.312Z,95
2022-11-19T09:46:30.839Z,96
2022-11-19T09:47:38.067Z,95
2022-11-19T09:48:45.134Z,95
2022-11-19T09:49:52.145Z,95
2022-11-19T09:50:58.819Z,96
2022-11-19T09:52:05.917Z,96
2022-11-19T09:53:12.996Z,96
2022-11-19T09:54:20.377Z,95
2022-11-19T09:55:27.217Z,95
2022-11-19T09:56:33.776Z,96
2022-11-19T09:57:41.001Z,96
2022-11-19T09:58:47.981Z,96
2022-11-19T09:59:55.135Z,95
2022-11-19T10:01:02.759Z,95
2022-11-19T10:02:09.344Z,95
2022-11-19T10:03:16.002Z,95
2022-11-19T10:04:23.297Z,95
2022-11-19T10:05:30.155Z,95
2022-11-19T10:06:37.201Z,96
2022-11-19T10:07:44.347Z,95
2022-11-19T10:08:50.856Z,96
2022-11-19T10:09:58.047Z,96
2022-11-19T10:11:05.132Z,96
2022-11-19T10:12:12.214Z,96
2022-11-19T10:13:18.807Z,96
2022-11-19T10:14:25.947Z,96
2022-11-19T10:15:37.405Z,96
2022-11-19T10:16:40.154Z,96
2022-11-19T10:17:47.255Z,96
2022-11-19T10:18:54.054Z,96
2022-11-19T10:20:00.869Z,95
2022-11-19T10:21:08.045Z,95
2022-11-19T10:22:15.204Z,96
2022-11-19T10:23:22.222Z,96
2022-11-19T10:25:35.971Z,96
2022-11-19T10:26:43.045Z,96
2022-11-19T10:27:50.145Z,96
2022-11-19T10:28:57.225Z,96
2022-11-19T10:30:03.863Z,96
2022-11-19T10:31:10.937Z,96
2022-11-19T10:32:18.138Z,96
2022-11-19T10:33:25.094Z,96
2022-11-19T10:34:32.257Z,96
2022-11-19T10:35:39.338Z,96
2022-11-19T10:36:45.940Z,96
2022-11-19T10:37:52.997Z,96
2022-11-19T10:39:00.188Z,95
2022-11-19T10:40:07.282Z,95
2022-11-19T10:41:13.841Z,95
2022-11-19T10:42:22.025Z,96
2022-11-19T10:44:35.111Z,96
2022-11-19T10:45:42.228Z,96
2022-11-19T10:46:48.900Z,95
2022-11-19T10:47:55.968Z,95
2022-11-19T10:49:03.052Z,95
2022-11-19T10:50:11.525Z,95
2022-11-19T10:51:16.777Z,95
2022-11-19T10:52:23.926Z,95
2022-11-19T10:53:30.962Z,95
2022-11-19T10:54:38.113Z,95
2022-11-19T10:55:47.816Z,94
2022-11-19T10:56:52.311Z,94
2022-11-19T10:57:58.847Z,95
2022-11-19T10:59:05.977Z,95
2022-11-19T11:00:13.064Z,94
2022-11-19T11:01:20.186Z,94
2022-11-19T11:02:28.370Z,94
2022-11-19T11:03:33.874Z,93
2022-11-19T11:04:40.995Z,93
2022-11-19T11:06:55.541Z,93
2022-11-19T11:08:02.347Z,93
2022-11-19T11:09:08.880Z,93
2022-11-19T11:10:16.109Z,93
2022-11-19T11:11:23.101Z,93
2022-11-19T11:12:30.198Z,92
2022-11-19T11:13:37.338Z,92
2022-11-19T11:14:43.923Z,92
2022-11-19T11:15:50.956Z,92
2022-11-19T11:16:58.150Z,92
2022-11-19T11:18:05.384Z,92
2022-11-19T11:19:12.221Z,92
2022-11-19T11:21:25.993Z,92
2022-11-19T11:22:33.125Z,92
2022-11-19T11:23:40.725Z,92
2022-11-19T11:24:46.831Z,92
2022-11-19T11:25:53.937Z,92
2022-11-19T11:27:01.015Z,91
2022-11-19T11:28:08.663Z,91
2022-11-19T11:29:15.263Z,91
2022-11-19T11:30:21.832Z,91
2022-11-19T11:31:28.923Z,91
2022-11-19T11:32:36.081Z,91
2022-11-19T11:33:43.180Z,91
2022-11-19T11:34:50.212Z,91
2022-11-19T11:35:56.862Z,91
2022-11-19T11:37:03.963Z,91
2022-11-19T11:38:11.048Z,91
2022-11-19T11:39:18.502Z,91
2022-11-19T11:40:25.263Z,91
2022-11-19T11:42:39.008Z,91
2022-11-19T11:43:46.139Z,91
2022-11-19T11:44:53.129Z,91
2022-11-19T11:46:00.251Z,91
2022-11-19T11:47:06.876Z,91
2022-11-19T11:48:13.889Z,91
2022-11-19T11:49:21.162Z,91
2022-11-19T11:50:28.173Z,91
2022-11-19T11:51:35.275Z,91
2022-11-19T11:52:41.843Z,91
2022-11-19T11:53:48.976Z,91
2022-11-19T11:54:56.034Z,91
2022-11-19T11:56:03.184Z,91
2022-11-19T11:57:10.323Z,91
2022-11-19T11:58:16.796Z,91
2022-11-19T11:59:23.990Z,91
2022-11-19T12:00:31.056Z,91
2022-11-19T12:01:38.137Z,91
2022-11-19T12:02:45.304Z,91
2022-11-19T12:03:55.233Z,91
2022-11-19T12:04:59.463Z,91
2022-11-19T12:06:06.046Z,91
2022-11-19T12:07:13.190Z,91
2022-11-19T12:08:25.575Z,91
2022-11-19T12:09:26.867Z,91
2022-11-19T12:10:34.000Z,91
2022-11-19T12:12:50.916Z,91
2022-11-19T12:13:55.351Z,91
2022-11-19T12:15:01.895Z,91
2022-11-19T12:16:09.012Z,91
2022-11-19T12:17:16.051Z,91
2022-11-19T12:18:23.153Z,90
2022-11-19T12:19:30.253Z,90
2022-11-19T12:20:37.025Z,90
2022-11-19T12:21:43.997Z,90
2022-11-19T12:22:51.130Z,90
2022-11-19T12:25:04.771Z,90
2022-11-19T12:26:11.918Z,90
2022-11-19T12:27:19.106Z,90
2022-11-19T12:28:26.127Z,89
2022-11-19T12:29:33.230Z,89
2022-11-19T12:30:39.778Z,89
2022-11-19T12:31:46.943Z,89
2022-11-19T12:32:54.024Z,89
2022-11-19T12:34:01.056Z,89
2022-11-19T12:35:08.233Z,89
2022-11-19T12:36:14.790Z,89
2022-11-19T12:37:21.860Z,88
2022-11-19T12:38:29.004Z,89
2022-11-19T12:40:43.248Z,88
2022-11-19T12:41:49.839Z,88
2022-11-19T12:42:57.551Z,88
2022-11-19T12:44:04.035Z,88
2022-11-19T12:45:11.162Z,88
2022-11-19T12:46:19.247Z,88
2022-11-19T12:47:24.861Z,88
2022-11-19T12:48:31.974Z,88
2022-11-19T12:49:39.000Z,88
2022-11-19T12:50:46.152Z,88
2022-11-19T12:51:53.263Z,88
2022-11-19T12:52:59.905Z,88
2022-11-19T12:54:06.924Z,88
2022-11-19T12:55:14.073Z,88
2022-11-19T12:56:21.176Z,88
2022-11-19T12:57:28.262Z,87
2022-11-19T12:58:34.881Z,87
2022-11-19T12:59:41.877Z,87
2022-11-19T13:00:49.181Z,87
2022-11-19T13:01:56.237Z,87
2022-11-19T13:03:03.300Z,87
2022-11-19T13:04:09.827Z,87
2022-11-19T13:05:17.035Z,87
2022-11-19T13:06:24.131Z,87
2022-11-19T13:08:38.382Z,87
2022-11-19T13:09:44.944Z,87
2022-11-19T13:10:51.954Z,87
2022-11-19T13:11:59.163Z,87
2022-11-19T13:13:06.158Z,87
2022-11-19T13:14:13.217Z,86
2022-11-19T13:15:19.903Z,86
2022-11-19T13:16:26.941Z,86
2022-11-19T13:17:34.161Z,86
2022-11-19T13:18:41.151Z,86
2022-11-19T13:19:48.371Z,86
2022-11-19T13:20:54.842Z,86
2022-11-19T13:22:01.903Z,86
2022-11-19T13:23:09.179Z,86
2022-11-19T13:24:16.252Z,86
2022-11-19T13:25:23.231Z,86
2022-11-19T13:26:29.962Z,86
2022-11-19T13:28:44.077Z,85
2022-11-19T13:29:51.126Z,85
2022-11-19T13:30:58.323Z,85
2022-11-19T13:32:04.868Z,85
2022-11-19T13:33:12.013Z,85
2022-11-19T13:34:19.062Z,85
2022-11-19T13:35:26.354Z,85
2022-11-19T13:36:33.307Z,85
2022-11-19T13:37:40.027Z,85
2022-11-19T13:38:46.986Z,84
2022-11-19T13:41:01.298Z,84
2022-11-19T13:42:07.846Z,84
2022-11-19T13:43:31.523Z,84
2022-11-19T13:44:22.013Z,84
2022-11-19T13:45:29.131Z,84
2022-11-19T13:46:36.301Z,84
2022-11-19T13:47:42.895Z,84
2022-11-19T13:48:49.902Z,83
2022-11-19T13:49:56.970Z,83
2022-11-19T13:51:04.185Z,83
2022-11-19T13:52:11.291Z,83
2022-11-19T13:53:17.822Z,83
2022-11-19T13:54:24.899Z,83
2022-11-19T13:55:31.991Z,83
2022-11-19T13:56:39.104Z,83
2022-11-19T13:57:46.190Z,83
2022-11-19T13:58:52.762Z,83
2022-11-19T13:59:59.998Z,83
2022-11-19T14:01:08.530Z,83
2022-11-19T14:02:14.224Z,83
2022-11-19T14:03:21.329Z,83
2022-11-19T14:04:27.945Z,83
2022-11-19T14:05:34.976Z,83
2022-11-19T14:06:42.115Z,83
2022-11-19T14:07:49.311Z,82
2022-11-19T14:08:56.799Z,82
2022-11-19T14:10:02.898Z,82
2022-11-19T14:11:10.073Z,82
2022-11-19T14:12:17.144Z,82
2022-11-19T14:13:24.258Z,82
2022-11-19T14:14:31.198Z,82
2022-11-19T14:15:37.808Z,82
2022-11-19T14:16:45.023Z,82
2022-11-19T14:17:51.996Z,82
2022-11-19T14:18:59.225Z,82
2022-11-19T14:20:06.228Z,82
2022-11-19T14:21:12.865Z,82
2022-11-19T14:22:20.029Z,82
2022-11-19T14:23:27.071Z,82
2022-11-19T14:24:34.138Z,82
2022-11-19T14:25:41.320Z,81
2022-11-19T14:26:52.261Z,82
2022-11-19T14:27:54.934Z,81
2022-11-19T14:29:02.075Z,81
2022-11-19T14:30:09.129Z,81
2022-11-19T14:31:16.306Z,81
2022-11-19T14:32:22.965Z,81
2022-11-19T14:33:29.962Z,81
2022-11-19T14:34:37.134Z,81
2022-11-19T14:35:44.274Z,81
2022-11-19T14:36:51.224Z,81
2022-11-19T14:37:57.839Z,81
2022-11-19T14:39:05.025Z,81
2022-11-19T14:40:12.145Z,81
2022-11-19T14:41:19.228Z,81
2022-11-19T14:42:26.355Z,81
2022-11-19T14:43:32.979Z,81
2022-11-19T14:44:40.028Z,81
2022-11-19T14:45:47.074Z,81
2022-11-19T14:46:54.225Z,80
2022-11-19T14:48:02.045Z,80
2022-11-19T14:49:07.973Z,80
2022-11-19T14:51:22.107Z,80
2022-11-19T14:52:29.204Z,80
2022-11-19T14:53:35.830Z,80
2022-11-19T14:54:42.908Z,80
2022-11-19T14:55:50.066Z,79
2022-11-19T14:56:57.114Z,80
2022-11-19T14:58:04.263Z,79
2022-11-19T14:59:11.388Z,79
2022-11-19T15:00:17.974Z,79
2022-11-19T15:01:25.036Z,79
2022-11-19T15:02:32.117Z,79
2022-11-19T15:03:39.380Z,79
2022-11-19T15:04:45.857Z,79
2022-11-19T15:05:52.845Z,79
2022-11-19T15:07:00.009Z,79
2022-11-19T15:09:14.302Z,79
2022-11-19T15:10:20.809Z,79
2022-11-19T15:11:27.972Z,79
2022-11-19T15:12:35.032Z,79
2022-11-19T15:13:42.162Z,79
2022-11-19T15:14:49.269Z,78
2022-11-19T15:15:55.861Z,78
2022-11-19T15:17:02.867Z,78
2022-11-19T15:18:10.049Z,78
2022-11-19T15:19:17.259Z,78
2022-11-19T15:20:24.289Z,78
2022-11-19T15:21:30.841Z,78
2022-11-19T15:22:37.943Z,78
2022-11-19T15:23:45.032Z,78
2022-11-19T15:24:52.073Z,78
2022-11-19T15:25:59.226Z,78
2022-11-19T15:27:05.816Z,78
2022-11-19T15:28:12.990Z,78
2022-11-19T15:29:20.316Z,78
2022-11-19T15:30:27.161Z,78
2022-11-19T15:32:40.915Z,78
2022-11-19T15:33:47.914Z,78
2022-11-19T15:35:10.184Z,77
2022-11-19T15:36:02.090Z,77
2022-11-19T15:37:09.299Z,77
2022-11-19T15:38:20.186Z,77
2022-11-19T15:39:23.165Z,77
2022-11-19T15:40:30.007Z,77
2022-11-19T15:41:37.204Z,77
2022-11-19T15:42:44.254Z,77
2022-11-19T15:43:50.894Z,77
2022-11-19T15:44:57.929Z,77
2022-11-19T15:46:05.116Z,77
2022-11-19T15:47:12.176Z,77
2022-11-19T15:48:19.289Z,77
2022-11-19T15:49:25.944Z,77
2022-11-19T15:50:33.035Z,76
2022-11-19T15:51:41.824Z,76
2022-11-19T15:52:47.139Z,76
2022-11-19T15:53:54.381Z,76
2022-11-19T15:55:00.807Z,76
2022-11-19T15:56:08.006Z,76
2022-11-19T15:57:15.096Z,76
2022-11-19T15:58:22.174Z,76
2022-11-19T15:59:28.825Z,76
2022-11-19T16:00:35.855Z,76
2022-11-19T16:01:43.102Z,76
2022-11-19T16:02:50.970Z,76
2022-11-19T16:03:57.287Z,76
2022-11-19T16:05:03.855Z,76
2022-11-19T16:06:10.977Z,76
2022-11-19T16:07:18.034Z,76
2022-11-19T16:08:25.161Z,76
2022-11-19T16:09:32.212Z,76
2022-11-19T16:10:38.772Z,76
2022-11-19T16:11:45.919Z,75
2022-11-19T16:14:00.152Z,75
2022-11-19T16:15:07.313Z,75
2022-11-19T16:16:13.750Z,75
2022-11-19T16:17:20.911Z,75
2022-11-19T16:18:28.026Z,75
2022-11-19T16:19:35.144Z,75
2022-11-19T16:20:42.169Z,75
2022-11-19T16:21:48.779Z,74
2022-11-19T16:22:55.970Z,74
2022-11-19T16:24:03.027Z,74
2022-11-19T16:25:10.084Z,74
2022-11-19T16:26:17.293Z,74
2022-11-19T16:27:23.755Z,74
2022-11-19T16:28:30.930Z,74
2022-11-19T16:29:38.075Z,74
2022-11-19T16:30:45.204Z,73
2022-11-19T16:31:52.245Z,73
2022-11-19T16:32:58.830Z,73
2022-11-19T16:34:05.976Z,73
2022-11-19T16:35:12.969Z,73
2022-11-19T16:37:27.222Z,73
2022-11-19T16:38:33.849Z,73
2022-11-19T16:39:40.870Z,73
2022-11-19T16:40:48.001Z,72
2022-11-19T16:41:55.173Z,72
2022-11-19T16:43:02.266Z,72